createdAt,value
2018-12-12T00:01:03.312Z,8.33
2018-12-12T00:02:38.228Z,7.80
2018-12-12T00:04:13.251Z,6.53
2018-12-12T00:05:48.199Z,7.45
2018-12-12T00:07:23.079Z,7.35
2018-12-12T00:08:58.035Z,7.10
2018-12-12T00:10:32.962Z,8.83
2018-12-12T00:12:07.904Z,8.55
2018-12-12T00:13:42.886Z,8.35
2018-12-12T00:15:19.157Z,8.53
2018-12-12T00:16:54.025Z,9.20
2018-12-12T00:18:28.970Z,8.30
2018-12-12T00:20:03.920Z,11.43
2018-12-12T00:21:38.862Z,9.75
2018-12-12T00:23:13.740Z,8.03
2018-12-12T00:24:48.691Z,9.60
2018-12-12T00:26:23.598Z,8.90
2018-12-12T00:27:58.474Z,8.90
2018-12-12T00:29:33.415Z,8.30
2018-12-12T00:31:08.304Z,8.03
2018-12-12T00:32:43.215Z,8.13
2018-12-12T00:34:18.164Z,10.43
2018-12-12T00:35:53.086Z,9.60
2018-12-12T00:37:27.974Z,10.15
2018-12-12T00:39:03.670Z,9.30
2018-12-12T00:40:38.602Z,8.80
2018-12-12T00:42:13.840Z,10.45
2018-12-12T00:43:48.733Z,11.00
2018-12-12T00:45:23.779Z,11.57
2018-12-12T00:46:58.726Z,11.70
2018-12-12T00:48:33.949Z,9.60
2018-12-12T00:50:09.118Z,10.80
2018-12-12T00:51:44.179Z,10.28
2018-12-12T00:53:19.078Z,10.68
2018-12-12T00:54:54.159Z,10.75
2018-12-12T00:56:29.066Z,14.15
2018-12-12T00:58:04.259Z,10.32
2018-12-12T00:59:39.174Z,9.95
2018-12-12T01:01:14.094Z,13.22
2018-12-12T01:02:48.997Z,10.88
2018-12-12T01:04:23.890Z,14.90
2018-12-12T01:05:58.777Z,12.58
2018-12-12T01:07:34.056Z,11.60
2018-12-12T01:09:09.447Z,13.50
2018-12-12T01:10:44.375Z,11.25
2018-12-12T01:12:19.307Z,13.68
2018-12-12T01:13:54.439Z,13.15
2018-12-12T01:15:29.326Z,12.70
2018-12-12T01:17:04.299Z,12.03
2018-12-12T01:18:39.203Z,12.37
2018-12-12T01:20:14.103Z,13.75
2018-12-12T01:21:49.107Z,12.63
2018-12-12T01:23:24.018Z,13.72
2018-12-12T01:24:59.056Z,12.25
2018-12-12T01:26:33.910Z,14.30
2018-12-12T01:28:08.843Z,11.20
2018-12-12T01:29:43.873Z,12.07
2018-12-12T01:31:18.746Z,11.38
2018-12-12T01:32:53.711Z,12.13
2018-12-12T01:34:28.738Z,11.28
2018-12-12T01:36:03.668Z,11.03
2018-12-12T01:37:38.603Z,11.57
2018-12-12T01:39:13.534Z,12.28
2018-12-12T01:40:48.479Z,8.93
2018-12-12T01:42:23.659Z,13.15
2018-12-12T01:43:58.577Z,11.95
2018-12-12T01:45:33.557Z,9.98
2018-12-12T01:47:08.532Z,11.48
2018-12-12T01:48:43.952Z,12.30
2018-12-12T01:50:18.885Z,13.62
2018-12-12T01:51:53.824Z,11.45
2018-12-12T01:53:28.753Z,11.28
2018-12-12T01:55:03.855Z,11.53
2018-12-12T01:56:45.451Z,12.23
2018-12-12T01:58:20.377Z,10.93
2018-12-12T01:59:55.258Z,11.18
2018-12-12T02:01:33.120Z,12.90
2018-12-12T02:03:08.095Z,11.95
2018-12-12T02:04:43.024Z,11.75
2018-12-12T02:06:17.923Z,10.80
2018-12-12T02:07:52.983Z,10.68
2018-12-12T02:09:27.927Z,12.07
2018-12-12T02:11:02.908Z,11.50
2018-12-12T02:12:37.811Z,12.03
2018-12-12T02:14:12.715Z,9.80
2018-12-12T02:15:47.771Z,10.93
2018-12-12T02:17:22.710Z,11.20
2018-12-12T02:18:57.830Z,11.85
2018-12-12T02:20:32.763Z,11.95
2018-12-12T02:22:07.750Z,11.75
2018-12-12T02:23:42.802Z,12.40
2018-12-12T02:25:18.637Z,11.35
2018-12-12T02:26:53.493Z,10.32
2018-12-12T02:28:28.400Z,11.65
2018-12-12T02:30:03.438Z,11.50
2018-12-12T02:31:38.349Z,12.50
2018-12-12T02:33:13.303Z,10.95
2018-12-12T02:34:48.398Z,9.98
2018-12-12T02:36:23.304Z,12.05
2018-12-12T02:37:58.270Z,10.60
2018-12-12T02:39:33.159Z,11.20
2018-12-12T02:41:08.117Z,10.15
2018-12-12T02:42:43.039Z,11.28
2018-12-12T02:44:17.966Z,10.68
2018-12-12T02:45:53.181Z,9.78
2018-12-12T02:47:28.116Z,11.78
2018-12-12T02:49:03.013Z,10.82
2018-12-12T02:50:37.933Z,10.78
2018-12-12T02:52:12.920Z,12.75
2018-12-12T02:53:47.831Z,9.88
2018-12-12T02:55:22.763Z,9.80
2018-12-12T02:56:57.711Z,10.82
2018-12-12T02:58:32.629Z,13.10
2018-12-12T03:00:09.325Z,10.18
2018-12-12T03:01:44.255Z,10.48
2018-12-12T03:03:19.258Z,9.90
2018-12-12T03:04:54.195Z,11.75
2018-12-12T03:06:29.092Z,12.28
2018-12-12T03:08:04.183Z,11.08
2018-12-12T03:09:39.416Z,11.68
2018-12-12T03:11:18.432Z,12.15
2018-12-12T03:12:53.443Z,11.88
2018-12-12T03:14:28.325Z,11.90
2018-12-12T03:16:03.291Z,13.43
2018-12-12T03:17:38.175Z,10.82
2018-12-12T03:19:13.135Z,11.35
2018-12-12T03:20:48.216Z,11.50
2018-12-12T03:22:23.146Z,11.70
2018-12-12T03:23:58.015Z,9.88
2018-12-12T03:25:32.903Z,12.18
2018-12-12T03:27:08.117Z,12.20
2018-12-12T03:28:43.079Z,10.05
2018-12-12T03:30:18.005Z,11.15
2018-12-12T03:31:53.013Z,12.58
2018-12-12T03:33:28.001Z,11.73
2018-12-12T03:35:02.980Z,12.03
2018-12-12T03:36:37.939Z,11.40
2018-12-12T03:38:12.905Z,12.95
2018-12-12T03:39:47.794Z,11.97
2018-12-12T03:41:23.052Z,12.30
2018-12-12T03:42:58.167Z,13.95
2018-12-12T03:44:33.675Z,13.38
2018-12-12T03:46:08.696Z,13.18
2018-12-12T03:47:43.699Z,13.95
2018-12-12T03:49:18.626Z,16.65
2018-12-12T03:50:53.542Z,16.55
2018-12-12T03:52:28.510Z,15.15
2018-12-12T03:54:03.546Z,14.87
2018-12-12T03:55:38.468Z,14.75
2018-12-12T03:57:13.374Z,14.03
2018-12-12T03:58:48.274Z,14.47
2018-12-12T04:00:23.162Z,15.72
2018-12-12T04:01:58.266Z,16.20
2018-12-12T04:03:33.243Z,17.45
2018-12-12T04:05:08.389Z,16.23
2018-12-12T04:06:43.282Z,16.73
2018-12-12T04:08:18.206Z,16.42
2018-12-12T04:09:53.154Z,16.93
2018-12-12T04:11:28.084Z,15.48
2018-12-12T04:13:02.938Z,17.85
2018-12-12T04:14:37.886Z,15.98
2018-12-12T04:16:13.172Z,18.62
2018-12-12T04:17:48.119Z,16.80
2018-12-12T04:19:23.218Z,15.35
2018-12-12T04:20:58.123Z,17.45
2018-12-12T04:22:34.653Z,20.23
2018-12-12T04:24:09.614Z,14.95
2018-12-12T04:25:44.522Z,17.52
2018-12-12T04:27:19.448Z,21.52
2018-12-12T04:28:54.408Z,16.05
2018-12-12T04:30:29.300Z,17.35
2018-12-12T04:32:04.283Z,17.70
2018-12-12T04:33:39.876Z,20.17
2018-12-12T04:35:14.921Z,17.57
2018-12-12T04:36:49.842Z,15.38
2018-12-12T04:38:24.744Z,16.17
2018-12-12T04:39:59.638Z,16.17
2018-12-12T04:41:35.550Z,13.93
2018-12-12T04:43:10.443Z,16.37
2018-12-12T04:44:45.303Z,17.40
2018-12-12T04:46:20.226Z,16.20
2018-12-12T04:47:55.556Z,13.85
2018-12-12T04:49:30.440Z,15.90
2018-12-12T04:51:05.364Z,16.80
2018-12-12T04:52:40.304Z,15.55
2018-12-12T04:54:15.314Z,15.63
2018-12-12T04:55:50.194Z,17.55
2018-12-12T04:57:25.625Z,19.73
2018-12-12T04:59:00.828Z,16.65
2018-12-12T05:00:35.768Z,17.07
2018-12-12T05:02:10.799Z,16.15
2018-12-12T05:03:45.813Z,17.65
2018-12-12T05:05:20.704Z,17.57
2018-12-12T05:06:55.621Z,14.85
2018-12-12T05:08:30.538Z,14.43
2018-12-12T05:10:06.002Z,15.40
2018-12-12T05:11:41.391Z,15.60
2018-12-12T05:13:16.330Z,15.78
2018-12-12T05:14:51.266Z,14.35
2018-12-12T05:16:26.244Z,15.23
2018-12-12T05:18:02.661Z,14.05
2018-12-12T05:19:37.767Z,16.32
2018-12-12T05:21:12.718Z,16.07
2018-12-12T05:22:47.630Z,16.75
2018-12-12T05:24:22.751Z,13.50
2018-12-12T05:25:58.640Z,14.93
2018-12-12T05:27:33.655Z,14.90
2018-12-12T05:29:08.570Z,14.38
2018-12-12T05:30:43.454Z,15.05
2018-12-12T05:32:18.530Z,14.68
2018-12-12T05:33:53.643Z,14.93
2018-12-12T05:35:28.563Z,15.25
2018-12-12T05:37:03.597Z,16.30
2018-12-12T05:38:38.782Z,15.70
2018-12-12T05:40:13.846Z,16.80
2018-12-12T05:41:48.744Z,15.80
2018-12-12T05:43:24.319Z,15.35
2018-12-12T05:44:59.319Z,15.43
2018-12-12T05:46:41.640Z,17.27
2018-12-12T05:48:12.681Z,14.35
2018-12-12T05:49:47.964Z,13.80
2018-12-12T05:51:22.894Z,16.82
2018-12-12T05:53:02.378Z,15.38
2018-12-12T05:54:37.262Z,15.80
2018-12-12T05:56:14.316Z,14.33
2018-12-12T05:57:49.190Z,16.35
2018-12-12T05:59:24.685Z,15.05
2018-12-12T06:00:59.747Z,17.40
2018-12-12T06:02:34.676Z,17.55
2018-12-12T06:04:09.584Z,18.65
2018-12-12T06:05:44.936Z,15.25
2018-12-12T06:07:19.875Z,16.10
2018-12-12T06:08:54.775Z,16.73
2018-12-12T06:10:29.650Z,18.92
2018-12-12T06:12:04.872Z,20.95
2018-12-12T06:13:39.767Z,18.32
2018-12-12T06:15:14.758Z,21.25
2018-12-12T06:16:49.726Z,17.82
2018-12-12T06:18:24.683Z,18.80
2018-12-12T06:19:59.900Z,17.12
2018-12-12T06:21:34.834Z,18.32
2018-12-12T06:23:09.748Z,15.93
2018-12-12T06:24:44.895Z,13.88
2018-12-12T06:26:19.794Z,13.85
2018-12-12T06:27:54.721Z,16.30
2018-12-12T06:29:29.590Z,16.10
2018-12-12T06:31:04.863Z,17.20
2018-12-12T06:32:39.756Z,13.48
2018-12-12T06:34:14.647Z,13.80
2018-12-12T06:35:49.577Z,13.58
2018-12-12T06:37:24.519Z,16.62
2018-12-12T06:38:59.474Z,13.65
2018-12-12T06:40:34.378Z,14.13
2018-12-12T06:42:15.802Z,14.98
2018-12-12T06:43:51.063Z,14.63
2018-12-12T06:45:25.995Z,16.37
2018-12-12T06:47:00.899Z,15.23
2018-12-12T06:48:35.824Z,14.33
2018-12-12T06:50:10.816Z,14.18
2018-12-12T06:51:45.736Z,17.10
2018-12-12T06:53:20.658Z,17.42
2018-12-12T06:54:55.576Z,17.73
2018-12-12T06:56:33.314Z,14.93
2018-12-12T06:58:08.278Z,15.50
2018-12-12T06:59:43.189Z,14.18
2018-12-12T07:01:18.154Z,15.15
2018-12-12T07:02:53.070Z,15.32
2018-12-12T07:04:28.111Z,17.27
2018-12-12T07:06:02.998Z,16.55
2018-12-12T07:07:38.130Z,18.92
2018-12-12T07:09:13.047Z,17.70
2018-12-12T07:10:47.959Z,17.17
2018-12-12T07:12:29.484Z,18.85
2018-12-12T07:14:04.705Z,19.92
2018-12-12T07:15:39.798Z,17.75
2018-12-12T07:17:14.722Z,16.30
2018-12-12T07:18:49.612Z,18.23
2018-12-12T07:20:24.562Z,15.90
2018-12-12T07:21:59.518Z,18.73
2018-12-12T07:23:34.445Z,15.10
2018-12-12T07:25:09.608Z,16.97
2018-12-12T07:26:44.515Z,15.95
2018-12-12T07:28:19.480Z,15.88
2018-12-12T07:29:54.402Z,15.58
2018-12-12T07:31:29.352Z,17.30
2018-12-12T07:33:04.286Z,16.12
2018-12-12T07:34:39.207Z,13.72
2018-12-12T07:36:14.175Z,13.72
2018-12-12T07:37:49.254Z,14.83
2018-12-12T07:39:24.158Z,16.07
2018-12-12T07:40:59.064Z,15.98
2018-12-12T07:42:34.010Z,13.55
2018-12-12T07:44:08.944Z,13.32
2018-12-12T07:45:43.832Z,14.43
2018-12-12T07:47:18.807Z,15.48
2018-12-12T07:48:54.092Z,16.77
2018-12-12T07:50:29.016Z,13.75
2018-12-12T07:52:04.011Z,14.93
2018-12-12T07:53:41.802Z,16.30
2018-12-12T07:55:16.770Z,15.20
2018-12-12T07:56:51.685Z,15.30
2018-12-12T07:58:26.966Z,15.83
2018-12-12T08:00:01.890Z,14.50
2018-12-12T08:01:36.935Z,15.68
2018-12-12T08:03:11.945Z,16.40
2018-12-12T08:04:46.915Z,15.95
2018-12-12T08:06:22.032Z,13.88
2018-12-12T08:07:57.243Z,14.98
2018-12-12T08:09:35.865Z,16.07
2018-12-12T08:11:10.870Z,15.25
2018-12-12T08:12:45.779Z,14.78
2018-12-12T08:14:21.030Z,16.27
2018-12-12T08:15:55.952Z,16.27
2018-12-12T08:17:30.847Z,14.50
2018-12-12T08:19:05.762Z,14.83
2018-12-12T08:20:41.048Z,17.57
2018-12-12T08:22:15.987Z,15.55
2018-12-12T08:23:50.879Z,17.82
2018-12-12T08:25:26.138Z,16.65
2018-12-12T08:27:01.175Z,17.75
2018-12-12T08:28:36.105Z,15.28
2018-12-12T08:30:11.163Z,15.05
2018-12-12T08:31:46.087Z,15.28
2018-12-12T08:33:21.041Z,14.00
2018-12-12T08:34:55.970Z,16.05
2018-12-12T08:36:30.870Z,16.62
2018-12-12T08:38:05.829Z,17.55
2018-12-12T08:39:40.806Z,16.35
2018-12-12T08:41:15.700Z,16.50
2018-12-12T08:42:50.698Z,15.90
2018-12-12T08:44:25.612Z,18.37
2018-12-12T08:46:00.489Z,17.50
2018-12-12T08:47:35.411Z,18.60
2018-12-12T08:49:10.428Z,18.92
2018-12-12T08:50:45.641Z,17.30
2018-12-12T08:52:20.571Z,17.55
2018-12-12T08:53:55.706Z,16.07
2018-12-12T08:55:30.867Z,17.05
2018-12-12T08:57:05.801Z,16.37
2018-12-12T08:58:40.723Z,17.50
2018-12-12T09:00:15.872Z,19.75
2018-12-12T09:01:50.795Z,16.55
2018-12-12T09:03:25.823Z,17.62
2018-12-12T09:05:00.706Z,17.55
2018-12-12T09:06:35.700Z,15.63
2018-12-12T09:08:10.638Z,14.33
2018-12-12T09:09:45.823Z,18.00
2018-12-12T09:11:20.708Z,16.85
2018-12-12T09:12:55.646Z,17.62
2018-12-12T09:14:30.577Z,16.73
2018-12-12T09:16:05.559Z,15.72
2018-12-12T09:17:40.487Z,16.50
2018-12-12T09:19:15.367Z,15.53
2018-12-12T09:20:50.295Z,17.70
2018-12-12T09:22:25.414Z,18.73
2018-12-12T09:24:00.362Z,19.20
2018-12-12T09:25:35.339Z,17.05
2018-12-12T09:27:10.302Z,17.85
2018-12-12T09:28:45.183Z,16.62
2018-12-12T09:30:20.151Z,18.07
2018-12-12T09:31:55.091Z,15.83
2018-12-12T09:33:30.113Z,19.07
2018-12-12T09:35:05.252Z,17.85
2018-12-12T09:36:40.247Z,16.07
2018-12-12T09:38:15.192Z,16.52
2018-12-12T09:39:50.090Z,16.75
2018-12-12T09:41:24.992Z,17.48
2018-12-12T09:43:00.007Z,18.17
2018-12-12T09:44:35.100Z,18.92
2018-12-12T09:46:10.071Z,16.82
2018-12-12T09:47:45.134Z,15.50
2018-12-12T09:49:20.010Z,16.25
2018-12-12T09:50:55.939Z,17.42
2018-12-12T09:52:30.907Z,16.48
2018-12-12T09:54:05.876Z,18.42
2018-12-12T09:55:40.883Z,17.35
2018-12-12T09:57:17.802Z,15.28
2018-12-12T09:58:52.786Z,17.35
2018-12-12T10:00:27.700Z,16.32
2018-12-12T10:02:02.682Z,14.33
2018-12-12T10:03:37.621Z,15.03
2018-12-12T10:05:12.533Z,17.52
2018-12-12T10:06:47.439Z,17.40
2018-12-12T10:08:22.408Z,17.50
2018-12-12T10:09:57.350Z,17.40
2018-12-12T10:11:32.285Z,18.32
2018-12-12T10:13:07.234Z,17.23
2018-12-12T10:14:42.228Z,18.12
2018-12-12T10:16:17.119Z,17.50
2018-12-12T10:17:52.143Z,17.70
2018-12-12T10:19:27.065Z,18.30
2018-12-12T10:21:02.067Z,18.17
2018-12-12T10:22:37.127Z,16.87
2018-12-12T10:24:12.693Z,20.90
2018-12-12T10:25:47.665Z,18.48
2018-12-12T10:27:22.663Z,15.83
2018-12-12T10:31:09.674Z,17.75
2018-12-12T10:32:46.147Z,18.77
2018-12-12T10:34:28.572Z,16.25
2018-12-12T10:36:04.754Z,14.55
2018-12-12T10:37:39.696Z,15.20
2018-12-12T10:39:14.645Z,15.40
2018-12-12T10:40:49.592Z,15.90
2018-12-12T10:42:24.591Z,13.90
2018-12-12T10:43:59.518Z,22.42
2018-12-12T10:45:34.439Z,40.88
2018-12-12T10:47:09.495Z,13.60
2018-12-12T10:48:51.098Z,15.03
2018-12-12T10:50:26.035Z,14.53
2018-12-12T10:52:00.932Z,12.47
2018-12-12T10:53:36.003Z,15.85
2018-12-12T10:55:10.936Z,15.72
2018-12-12T10:56:45.871Z,16.37
2018-12-12T10:58:20.785Z,15.30
2018-12-12T10:59:55.777Z,14.75
2018-12-12T11:01:35.223Z,17.17
2018-12-12T11:03:15.295Z,15.00
2018-12-12T11:04:50.232Z,15.72
2018-12-12T11:06:25.425Z,17.67
2018-12-12T11:08:00.507Z,16.10
2018-12-12T11:09:35.423Z,17.40
2018-12-12T11:11:10.334Z,16.85
2018-12-12T11:12:45.276Z,17.85
2018-12-12T11:14:20.135Z,17.92
2018-12-12T11:15:55.024Z,16.67
2018-12-12T11:17:29.997Z,18.65
2018-12-12T11:19:04.927Z,17.80
2018-12-12T11:20:39.939Z,19.02
2018-12-12T11:22:15.659Z,17.27
2018-12-12T11:23:50.762Z,16.25
2018-12-12T11:25:25.708Z,17.87
2018-12-12T11:27:00.803Z,17.50
2018-12-12T11:28:35.707Z,16.35
2018-12-12T11:30:10.721Z,18.60
2018-12-12T11:31:45.654Z,16.87
2018-12-12T11:33:20.587Z,16.95
2018-12-12T11:34:55.503Z,15.08
2018-12-12T11:36:30.460Z,17.12
2018-12-12T11:38:05.440Z,16.70
2018-12-12T11:39:40.416Z,13.98
2018-12-12T11:41:15.355Z,14.18
2018-12-12T11:42:50.348Z,15.00
2018-12-12T11:44:25.294Z,16.55
2018-12-12T11:46:00.305Z,17.70
2018-12-12T11:47:35.378Z,15.32
2018-12-12T11:49:10.275Z,15.78
2018-12-12T11:50:45.279Z,17.02
2018-12-12T11:52:20.184Z,15.30
2018-12-12T11:53:55.210Z,16.23
2018-12-12T11:55:30.125Z,14.47
2018-12-12T11:57:05.458Z,15.60
2018-12-12T11:58:40.382Z,15.72
2018-12-12T12:00:15.369Z,15.98
2018-12-12T12:01:50.296Z,14.98
2018-12-12T12:03:25.395Z,14.47
2018-12-12T12:05:00.372Z,13.48
2018-12-12T12:06:35.259Z,14.85
2018-12-12T12:08:10.311Z,14.30
2018-12-12T12:09:45.263Z,16.12
2018-12-12T12:11:20.215Z,14.80
2018-12-12T12:12:55.252Z,16.57
2018-12-12T12:14:30.160Z,14.87
2018-12-12T12:16:05.095Z,15.58
2018-12-12T12:17:39.996Z,13.65
2018-12-12T12:19:14.923Z,13.80
2018-12-12T12:20:49.809Z,15.05
2018-12-12T12:22:24.715Z,14.83
2018-12-12T12:23:59.665Z,16.77
2018-12-12T12:25:34.593Z,14.07
2018-12-12T12:27:09.602Z,17.00
2018-12-12T12:28:44.554Z,15.98
2018-12-12T12:30:19.435Z,15.72
2018-12-12T12:31:54.363Z,15.60
2018-12-12T12:33:29.407Z,16.52
2018-12-12T12:35:04.490Z,14.15
2018-12-12T12:36:39.394Z,14.10
2018-12-12T12:38:17.240Z,13.58
2018-12-12T12:39:52.181Z,14.98
2018-12-12T12:41:27.075Z,16.05
2018-12-12T12:43:02.027Z,14.43
2018-12-12T12:44:37.324Z,16.85
2018-12-12T12:46:12.250Z,14.28
2018-12-12T12:47:47.126Z,15.25
2018-12-12T12:49:22.175Z,14.47
2018-12-12T12:50:57.134Z,13.38
2018-12-12T12:52:32.042Z,14.63
2018-12-12T12:54:06.947Z,15.28
2018-12-12T12:55:41.914Z,14.60
2018-12-12T12:57:16.851Z,14.18
2018-12-12T12:58:51.778Z,14.90
2018-12-12T13:00:26.659Z,15.50
2018-12-12T13:02:01.563Z,14.65
2018-12-12T13:03:36.517Z,18.23
2018-12-12T13:05:11.431Z,15.20
2018-12-12T13:06:46.328Z,15.43
2018-12-12T13:08:21.246Z,17.52
2018-12-12T13:09:56.269Z,17.02
2018-12-12T13:11:31.183Z,16.02
2018-12-12T13:13:06.443Z,15.50
2018-12-12T13:14:41.575Z,14.70
2018-12-12T13:16:17.300Z,15.28
2018-12-12T13:17:52.205Z,15.63
2018-12-12T13:19:27.295Z,15.55
2018-12-12T13:21:02.222Z,15.95
2018-12-12T13:22:37.483Z,15.20
2018-12-12T13:24:12.403Z,14.68
2018-12-12T13:25:47.335Z,14.65
2018-12-12T13:27:22.218Z,15.23
2018-12-12T13:28:57.200Z,16.75
2018-12-12T13:30:32.171Z,14.85
2018-12-12T13:32:07.082Z,16.00
2018-12-12T13:33:42.047Z,15.45
2018-12-12T13:35:17.033Z,14.63
2018-12-12T13:36:51.981Z,15.35
2018-12-12T13:38:26.971Z,16.30
2018-12-12T13:40:01.922Z,17.80
2018-12-12T13:41:36.967Z,15.68
2018-12-12T13:43:11.944Z,14.85
2018-12-12T13:44:47.004Z,16.82
2018-12-12T13:46:22.011Z,14.35
2018-12-12T13:47:56.963Z,16.32
2018-12-12T13:49:31.976Z,14.93
2018-12-12T13:51:06.935Z,15.00
2018-12-12T13:52:41.860Z,15.38
2018-12-12T13:54:16.800Z,14.53
2018-12-12T13:55:54.794Z,16.95
2018-12-12T13:57:29.723Z,16.70
2018-12-12T13:59:04.641Z,17.10
2018-12-12T14:00:39.723Z,18.17
2018-12-12T14:02:14.766Z,16.05
2018-12-12T14:03:52.574Z,15.65
2018-12-12T14:05:27.538Z,16.77
2018-12-12T14:07:02.523Z,16.87
2018-12-12T14:08:37.898Z,17.00
2018-12-12T14:10:12.866Z,20.23
2018-12-12T14:11:47.798Z,18.50
2018-12-12T14:13:22.759Z,18.20
2018-12-12T14:14:57.898Z,18.75
2018-12-12T14:16:32.924Z,19.12
2018-12-12T14:18:07.894Z,18.60
2018-12-12T14:19:42.991Z,21.07
2018-12-12T14:21:17.954Z,20.23
2018-12-12T14:22:52.922Z,18.85
2018-12-12T14:24:27.918Z,17.30
2018-12-12T14:26:02.871Z,21.12
2018-12-12T14:27:39.005Z,17.52
2018-12-12T14:29:14.494Z,17.37
2018-12-12T14:30:49.402Z,18.45
2018-12-12T14:32:24.395Z,20.30
2018-12-12T14:33:59.348Z,21.07
2018-12-12T14:35:34.393Z,18.67
2018-12-12T14:37:09.323Z,20.08
2018-12-12T14:38:44.298Z,16.75
2018-12-12T14:40:19.297Z,16.87
2018-12-12T14:41:54.243Z,19.07
2018-12-12T14:43:29.145Z,17.42
2018-12-12T14:45:04.399Z,18.27
2018-12-12T14:46:39.346Z,19.02
2018-12-12T14:48:14.292Z,17.25
2018-12-12T14:49:49.248Z,17.07
2018-12-12T14:51:24.269Z,20.80
2018-12-12T14:52:59.182Z,17.50
2018-12-12T14:54:34.102Z,18.40
2018-12-12T14:56:09.035Z,18.32
2018-12-12T14:57:44.052Z,17.92
2018-12-12T14:59:18.977Z,20.23
2018-12-12T15:00:54.793Z,19.95
2018-12-12T15:02:29.831Z,18.60
2018-12-12T15:04:05.105Z,35.30
2018-12-12T15:05:41.023Z,40.92
2018-12-12T15:07:15.914Z,146.87
2018-12-12T15:08:50.824Z,50.25
2018-12-12T15:10:25.811Z,33.20
2018-12-12T15:12:00.836Z,32.10
2018-12-12T15:13:35.701Z,22.30
2018-12-12T15:15:10.632Z,22.67
2018-12-12T15:16:45.610Z,19.37
2018-12-12T15:18:20.565Z,19.62
2018-12-12T15:19:55.489Z,20.30
2018-12-12T15:21:30.542Z,21.27
2018-12-12T15:23:05.483Z,22.13
2018-12-12T15:24:40.394Z,21.87
2018-12-12T15:26:15.314Z,20.37
2018-12-12T15:27:50.309Z,21.85
2018-12-12T15:29:25.234Z,20.15
2018-12-12T15:31:00.155Z,21.10
2018-12-12T15:32:35.176Z,27.65
2018-12-12T15:34:10.068Z,22.20
2018-12-12T15:35:44.975Z,30.52
2018-12-12T15:37:20.278Z,22.58
2018-12-12T15:38:55.181Z,28.77
2018-12-12T15:40:30.100Z,21.60
2018-12-12T15:42:05.027Z,21.42
2018-12-12T15:43:40.013Z,23.52
2018-12-12T15:45:14.994Z,23.25
2018-12-12T15:46:49.951Z,20.50
2018-12-12T15:48:24.867Z,22.55
2018-12-12T15:50:00.198Z,23.10
2018-12-12T15:51:35.133Z,24.05
2018-12-12T15:53:10.027Z,22.40
2018-12-12T15:54:44.935Z,22.15
2018-12-12T15:56:19.896Z,21.65
2018-12-12T15:57:54.810Z,21.82
2018-12-12T15:59:29.765Z,23.83
2018-12-12T16:01:04.679Z,23.18
2018-12-12T16:02:39.914Z,26.37
2018-12-12T16:04:14.928Z,25.90
2018-12-12T16:05:49.818Z,24.23
2018-12-12T16:07:24.722Z,23.70
2018-12-12T16:08:59.724Z,24.00
2018-12-12T16:10:34.703Z,22.82
2018-12-12T16:12:09.671Z,22.95
2018-12-12T16:13:44.594Z,24.05
2018-12-12T16:15:19.589Z,22.30
2018-12-12T16:16:54.608Z,24.47
2018-12-12T16:18:29.537Z,27.25
2018-12-12T16:20:05.776Z,24.45
2018-12-12T16:21:40.711Z,24.82
2018-12-12T16:23:16.002Z,25.37
2018-12-12T16:24:50.919Z,24.60
2018-12-12T16:26:25.880Z,23.60
2018-12-12T16:28:00.783Z,24.45
2018-12-12T16:29:36.109Z,26.35
2018-12-12T16:31:11.096Z,24.65
2018-12-12T16:32:46.081Z,24.57
2018-12-12T16:34:21.027Z,23.92
2018-12-12T16:35:56.175Z,26.45
2018-12-12T16:37:31.099Z,23.50
2018-12-12T16:39:09.274Z,24.67
2018-12-12T16:40:44.199Z,26.02
2018-12-12T16:42:19.186Z,23.73
2018-12-12T16:43:54.898Z,25.75
2018-12-12T16:45:29.820Z,27.82
2018-12-12T16:47:04.864Z,26.17
2018-12-12T16:48:39.790Z,24.30
2018-12-12T16:50:14.805Z,23.55
2018-12-12T16:51:49.732Z,24.87
2018-12-12T16:53:24.666Z,26.20
2018-12-12T16:54:59.708Z,23.52
2018-12-12T16:56:34.719Z,26.15
2018-12-12T16:58:10.479Z,24.40
2018-12-12T16:59:45.431Z,24.92
2018-12-12T17:01:23.272Z,24.80
2018-12-12T17:02:58.223Z,23.83
2018-12-12T17:04:33.247Z,27.40
2018-12-12T17:06:08.213Z,25.10
2018-12-12T17:07:43.235Z,27.27
2018-12-12T17:09:18.129Z,27.70
2018-12-12T17:10:53.053Z,29.48
2018-12-12T17:12:28.108Z,25.95
2018-12-12T17:14:03.131Z,29.25
2018-12-12T17:15:38.240Z,29.27
2018-12-12T17:17:19.906Z,30.90
2018-12-12T17:18:54.889Z,30.55
2018-12-12T17:20:29.831Z,35.65
2018-12-12T17:22:04.800Z,112.83
2018-12-12T17:23:39.764Z,66.42
2018-12-12T17:25:14.725Z,41.13
2018-12-12T17:26:49.687Z,52.17
2018-12-12T17:28:24.614Z,64.97
2018-12-12T17:29:59.535Z,61.77
2018-12-12T17:31:34.544Z,62.00
2018-12-12T17:33:09.446Z,37.58
2018-12-12T17:34:44.372Z,46.88
2018-12-12T17:36:19.279Z,50.28
2018-12-12T17:37:54.588Z,43.65
2018-12-12T17:39:30.395Z,41.98
2018-12-12T17:41:05.304Z,34.98
2018-12-12T17:42:40.203Z,39.48
2018-12-12T17:44:18.003Z,37.50
2018-12-12T17:45:52.964Z,35.17
2018-12-12T17:47:27.871Z,33.67
2018-12-12T17:49:02.775Z,35.43
2018-12-12T17:50:37.755Z,33.70
2018-12-12T17:52:12.655Z,32.83
2018-12-12T17:53:47.573Z,36.50
2018-12-12T17:55:22.557Z,34.65
2018-12-12T17:56:57.587Z,35.20
2018-12-12T17:58:32.499Z,33.00
2018-12-12T18:00:08.744Z,33.38
2018-12-12T18:01:43.707Z,33.53
2018-12-12T18:03:18.657Z,30.15
2018-12-12T18:04:54.259Z,32.20
2018-12-12T18:06:29.171Z,32.08
2018-12-12T18:08:04.132Z,32.20
2018-12-12T18:09:39.116Z,29.95
2018-12-12T18:11:14.043Z,32.80
2018-12-12T18:12:49.063Z,34.10
2018-12-12T18:14:23.995Z,30.57
2018-12-12T18:15:58.933Z,34.25
2018-12-12T18:17:33.952Z,31.68
2018-12-12T18:19:08.999Z,31.90
2018-12-12T18:20:43.933Z,30.62
2018-12-12T18:22:18.842Z,35.52
2018-12-12T18:23:54.187Z,36.00
2018-12-12T18:25:29.119Z,29.40
2018-12-12T18:27:04.100Z,33.45
2018-12-12T18:28:38.983Z,29.77
2018-12-12T18:30:14.288Z,33.60
2018-12-12T18:31:49.192Z,37.17
2018-12-12T18:33:24.144Z,37.00
2018-12-12T18:34:59.111Z,33.28
2018-12-12T18:36:34.326Z,34.18
2018-12-12T18:38:09.295Z,38.30
2018-12-12T18:39:44.202Z,39.85
2018-12-12T18:41:19.126Z,33.78
2018-12-12T18:42:54.077Z,33.45
2018-12-12T18:44:29.032Z,35.08
2018-12-12T18:46:03.968Z,45.23
2018-12-12T18:47:38.906Z,39.55
2018-12-12T18:49:13.981Z,41.02
2018-12-12T18:50:49.136Z,41.10
2018-12-12T18:52:24.109Z,37.70
2018-12-12T18:53:59.073Z,38.28
2018-12-12T18:55:34.300Z,35.38
2018-12-12T18:57:09.209Z,39.53
2018-12-12T18:58:44.182Z,42.38
2018-12-12T19:00:19.134Z,42.65
2018-12-12T19:01:54.127Z,39.23
2018-12-12T19:03:29.089Z,42.13
2018-12-12T19:05:04.024Z,37.85
2018-12-12T19:06:39.030Z,39.35
2018-12-12T19:08:14.022Z,35.10
2018-12-12T19:09:48.963Z,38.58
2018-12-12T19:11:23.935Z,37.40
2018-12-12T19:12:58.889Z,38.30
2018-12-12T19:14:33.838Z,38.17
2018-12-12T19:16:08.782Z,36.77
2018-12-12T19:17:43.803Z,37.05
2018-12-12T19:19:18.735Z,40.65
2018-12-12T19:20:59.824Z,41.65
2018-12-12T19:22:30.802Z,39.58
2018-12-12T19:24:05.868Z,37.80
2018-12-12T19:25:40.991Z,36.83
2018-12-12T19:27:15.993Z,39.63
2018-12-12T19:28:50.958Z,41.33
2018-12-12T19:30:25.983Z,40.55
2018-12-12T19:32:00.926Z,38.53
2018-12-12T19:33:35.827Z,43.87
2018-12-12T19:35:11.550Z,42.30
2018-12-12T19:36:46.456Z,42.27
2018-12-12T19:38:21.456Z,36.93
2018-12-12T19:39:56.386Z,42.73
2018-12-12T19:41:31.566Z,38.88
2018-12-12T19:43:07.440Z,41.37
2018-12-12T19:44:42.359Z,41.50
2018-12-12T19:46:17.327Z,40.43
2018-12-12T19:47:52.475Z,41.42
2018-12-12T19:49:27.476Z,38.50
2018-12-12T19:51:02.586Z,41.70
2018-12-12T19:52:37.615Z,41.20
2018-12-12T19:54:12.936Z,40.88
2018-12-12T19:55:48.127Z,40.30
2018-12-12T19:57:23.112Z,37.55
2018-12-12T19:58:57.978Z,41.35
2018-12-12T20:00:32.956Z,42.08
2018-12-12T20:02:08.385Z,39.00
2018-12-12T20:03:43.278Z,37.80
2018-12-12T20:05:18.226Z,36.70
2018-12-12T20:06:53.094Z,39.25
2018-12-12T20:08:28.111Z,38.30
2018-12-12T20:10:03.068Z,39.33
2018-12-12T20:11:38.602Z,42.78
2018-12-12T20:13:13.749Z,42.50
2018-12-12T20:14:49.179Z,38.48
2018-12-12T20:16:24.165Z,39.05
2018-12-12T20:17:59.139Z,37.73
2018-12-12T20:19:34.051Z,39.95
2018-12-12T20:21:09.021Z,39.38
2018-12-12T20:22:43.945Z,40.33
2018-12-12T20:24:18.936Z,44.27
2018-12-12T20:25:53.879Z,41.10
2018-12-12T20:27:28.799Z,42.90
2018-12-12T20:29:04.067Z,43.55